Latest Weather Observations for West Roebuck

IDW60801

Issued at 7:02 am WST Tuesday 9 February 2016 (issued every 30 minutes, with the page automatically refreshed every 10 minutes)

About weather observations | Map of weather stations | Latest weather observations for WA | Other Formats
Station Details ID: 003096 Name: WEST ROEBUCK Lat: -17.90 Lon: 122.31 Height: 32.0 m
Data from the previous 72 hours. | See also: Recent months at West Roebuck
Date/Time
WST
Temp
°C
App
Temp
°C
Dew
Point
Rel
Hum
%
Delta-T
°C
Wind Press
QNH
hPa
Press
MSL
hPa
Rain
since 9 am
mm
Dir
 
Spd
km/h
Gust
km/h
Spd
kts
Gust
kts
09/07:00am 28.4 - - - - WSW 7 11 4 6 - - 0.0
09/06:30am 27.0 - - - - NNW 7 9 4 5 - - 0.0
09/06:00am 26.1 - - - - NNW 9 9 5 5 - - 0.0
09/05:30am 26.0 - - - - N 6 7 3 4 - - 0.0
09/05:00am 26.2 - - - - N 2 7 1 4 - - 0.0
09/04:30am 26.7 - - - - NNE 7 9 4 5 - - 0.0
09/04:00am 26.8 - - - - NNE 7 9 4 5 - - 0.0
09/03:30am 26.9 - - - - SSE 4 9 2 5 - - 0.0
09/03:00am 27.1 - - - - WSW 7 9 4 5 - - 0.0
09/02:30am 27.3 - - - - SW 7 11 4 6 - - 0.0
09/02:00am 26.9 - - - - SW 4 9 2 5 - - 0.0
09/01:30am 26.8 - - - - WNW 9 11 5 6 - - 0.0
09/01:00am 26.8 - - - - W 11 13 6 7 - - 0.0
09/12:30am 26.7 - - - - WNW 9 9 5 5 - - 0.0
09/12:00am 26.5 - - - - WNW 7 9 4 5 - - 0.0
 
Date/Time
WST
Temp
°C
App
Temp
°C
Dew
Point
Rel
Hum
%
Delta-T
°C
Wind Press
QNH
hPa
Press
MSL
hPa
Rain
since 9 am
mm
Dir
 
Spd
km/h
Gust
km/h
Spd
kts
Gust
kts
08/11:30pm 26.9 - - - - WNW 7 9 4 5 - - 0.0
08/11:00pm 26.8 - - - - NW 9 9 5 5 - - 0.0
08/10:30pm 27.2 - - - - WNW 9 11 5 6 - - 0.0
08/10:00pm 27.5 - - - - NW 9 11 5 6 - - 0.0
08/09:30pm 27.8 - - - - WNW 9 13 5 7 - - 0.0
08/09:00pm 27.9 - - - - NW 11 13 6 7 - - 0.0
08/08:30pm 28.3 - - - - NW 9 11 5 6 - - 0.0
08/08:00pm 28.4 - - - - WNW 9 13 5 7 - - 0.0
08/07:30pm 29.0 - - - - WNW 7 9 4 5 - - 0.0
08/07:00pm 29.5 - - - - WNW 9 13 5 7 - - 0.0
08/06:30pm 30.2 - - - - W 13 17 7 9 - - 0.0
08/06:00pm 31.5 - - - - W 15 20 8 11 - - 0.0
08/05:30pm 32.6 - - - - W 17 22 9 12 - - 0.0
08/05:00pm 33.9 - - - - W 15 22 8 12 - - 0.0
08/04:30pm 34.9 - - - - W 15 20 8 11 - - 0.0
08/04:00pm 35.3 - - - - W 17 22 9 12 - - 0.0
08/03:30pm 35.7 - - - - W 19 24 10 13 - - 0.0
08/03:00pm 36.7 - - - - W 17 20 9 11 - - 0.0
08/02:30pm 36.3 - - - - WSW 17 24 9 13 - - 0.0
08/02:00pm 36.9 - - - - WSW 17 30 9 16 - - 0.0
08/01:30pm 36.9 - - - - WSW 19 24 10 13 - - 0.0
08/01:00pm 37.2 - - - - W 19 26 10 14 - - 0.0
08/12:30pm 36.8 - - - - SW 15 24 8 13 - - 0.0
08/12:00pm 36.2 - - - - SW 15 24 8 13 - - 0.0
08/11:30am 36.2 - - - - SW 13 24 7 13 - - 0.0
08/11:00am 36.2 - - - - SSW 13 24 7 13 - - 0.0
08/10:30am 36.4 - - - - SW 13 20 7 11 - - 0.0
08/10:00am 35.1 - - - - SW 15 24 8 13 - - 0.0
08/09:30am 34.7 - - - - SW 13 20 7 11 - - 0.0
08/09:00am 33.4 - - - - SW 11 17 6 9 - - 0.2
08/08:30am 32.9 - - - - SW 13 22 7 12 - - 0.2
08/08:00am 31.3 - - - - SW 11 19 6 10 - - 0.2
08/07:30am 29.8 - - - - SSW 9 15 5 8 - - 0.2
08/07:00am 28.4 - - - - S 6 9 3 5 - - 0.2
08/06:30am 26.1 - - - - WNW 6 7 3 4 - - 0.2
08/06:00am 24.9 - - - - CALM 0 0 0 0 - - 0.2
08/05:30am 24.8 - - - - NW 4 6 2 3 - - 0.2
08/05:00am 25.3 - - - - W 7 9 4 5 - - 0.2
08/04:30am 25.3 - - - - WNW 4 9 2 5 - - 0.2
08/04:00am 25.7 - - - - CALM 0 9 0 5 - - 0.2
08/03:30am 26.3 - - - - SW 11 13 6 7 - - 0.2
08/03:00am 26.1 - - - - SSW 11 13 6 7 - - 0.2
08/02:30am 25.6 - - - - CALM 0 6 0 3 - - 0.2
08/02:00am 26.1 - - - - NW 2 7 1 4 - - 0.2
08/01:30am 26.2 - - - - NW 4 9 2 5 - - 0.2
08/01:00am 26.8 - - - - W 9 11 5 6 - - 0.2
08/12:30am 26.9 - - - - WNW 9 9 5 5 - - 0.2
08/12:00am 27.1 - - - - W 9 9 5 5 - - 0.2
 
Date/Time
WST
Temp
°C
App
Temp
°C
Dew
Point
Rel
Hum
%
Delta-T
°C
Wind Press
QNH
hPa
Press
MSL
hPa
Rain
since 9 am
mm
Dir
 
Spd
km/h
Gust
km/h
Spd
kts
Gust
kts
07/11:30pm 27.3 - - - - WSW 7 9 4 5 - - 0.2
07/11:00pm 27.8 - - - - WSW 11 15 6 8 - - 0.2
07/10:30pm 27.4 - - - - WNW 9 11 5 6 - - 0.2
07/10:00pm 27.1 - - - - NW 9 11 5 6 - - 0.2
07/09:30pm 27.6 - - - - NNW 7 9 4 5 - - 0.2
07/09:00pm 27.9 - - - - WNW 7 9 4 5 - - 0.2
07/08:30pm 28.2 - - - - W 7 9 4 5 - - 0.2
07/08:00pm 28.6 - - - - W 9 11 5 6 - - 0.2
07/07:30pm 29.1 - - - - W 9 15 5 8 - - 0.2
07/07:00pm 29.6 - - - - WNW 11 17 6 9 - - 0.2
07/06:30pm 30.1 - - - - W 13 20 7 11 - - 0.2
07/06:00pm 31.1 - - - - WNW 15 22 8 12 - - 0.2
07/05:30pm 31.8 - - - - WNW 19 26 10 14 - - 0.2
07/05:00pm 32.7 - - - - WNW 20 28 11 15 - - 0.2
07/04:30pm 33.1 - - - - NW 20 28 11 15 - - 0.2
07/04:00pm 33.7 - - - - NW 22 35 12 19 - - 0.2
07/03:30pm 34.5 - - - - W 20 32 11 17 - - 0.2
07/03:00pm 35.0 - - - - W 20 33 11 18 - - 0.2
07/02:30pm 34.0 - - - - WSW 17 24 9 13 - - 0.2
07/02:00pm 36.7 - - - - W 17 24 9 13 - - 0.0
07/01:30pm 35.7 - - - - WNW 19 26 10 14 - - 0.0
07/01:00pm 35.6 - - - - W 17 24 9 13 - - 0.0
07/12:30pm 35.7 - - - - W 19 30 10 16 - - 0.0
07/12:00pm 35.0 - - - - WSW 19 26 10 14 - - 0.0
07/11:30am 36.1 - - - - SW 13 20 7 11 - - 0.0
07/11:00am 35.8 - - - - SW 13 22 7 12 - - 0.0
07/10:30am 35.2 - - - - SSW 9 17 5 9 - - 0.0
07/10:00am 35.1 - - - - SSW 7 13 4 7 - - 0.0
07/09:30am 34.0 - - - - SW 9 17 5 9 - - 0.0
07/09:00am 33.4 - - - - WSW 9 15 5 8 - - 0.0
07/08:30am 32.4 - - - - SSW 11 17 6 9 - - 0.0
07/08:00am 31.6 - - - - S 9 13 5 7 - - 0.0
07/07:30am 30.2 - - - - S 9 13 5 7 - - 0.0
07/07:00am 28.9 - - - - S 7 11 4 6 - - 0.0
07/06:30am 27.1 - - - - CALM 0 0 0 0 - - 0.0
07/06:00am 26.2 - - - - CALM 0 0 0 0 - - 0.0
07/05:30am 26.5 - - - - S 6 7 3 4 - - 0.0
07/05:00am 26.9 - - - - S 7 9 4 5 - - 0.0
07/04:30am 27.0 - - - - SSW 6 9 3 5 - - 0.0
07/04:00am 26.8 - - - - SW 6 9 3 5 - - 0.0
07/03:30am 27.0 - - - - SW 7 9 4 5 - - 0.0
07/03:00am 26.8 - - - - SW 11 13 6 7 - - 0.0
07/02:30am 26.4 - - - - SW 7 9 4 5 - - 0.0
07/02:00am 26.4 - - - - WSW 7 9 4 5 - - 0.0
07/01:30am 26.4 - - - - WSW 7 9 4 5 - - 0.0
07/01:00am 26.3 - - - - WSW 7 9 4 5 - - 0.0
07/12:30am 26.4 - - - - WNW 7 9 4 5 - - 0.0
07/12:00am 26.4 - - - - W 7 9 4 5 - - 0.0
 
Date/Time
WST
Temp
°C
App
Temp
°C
Dew
Point
Rel
Hum
%
Delta-T
°C
Wind Press
QNH
hPa
Press
MSL
hPa
Rain
since 9 am
mm
Dir
 
Spd
km/h
Gust
km/h
Spd
kts
Gust
kts
06/11:30pm 26.4 - - - - WNW 7 9 4 5 - - 0.0
06/11:00pm 26.4 - - - - WNW 2 9 1 5 - - 0.0
06/10:30pm 26.8 - - - - CALM 0 0 0 0 - - 0.0
06/10:00pm 27.3 - - - - CALM 0 0 0 0 - - 0.0
06/09:30pm 27.7 - - - - NW 6 9 3 5 - - 0.0
06/09:00pm 27.8 - - - - W 9 13 5 7 - - 0.0
06/08:30pm 28.0 - - - - NNW 9 11 5 6 - - 0.0
06/08:00pm 28.3 - - - - WNW 11 17 6 9 - - 0.0
06/07:30pm 28.5 - - - - W 13 20 7 11 - - 0.0
06/07:00pm 28.7 - - - - WSW 17 24 9 13 - - 0.0
06/06:30pm 29.3 - - - - WSW 17 22 9 12 - - 0.0
06/06:00pm 30.5 - - - - W 11 17 6 9 - - 0.0
06/05:30pm 30.8 - - - - SSW 6 17 3 9 - - 0.0
06/05:00pm 31.5 - - - - WSW 17 24 9 13 - - 0.0
06/04:30pm 32.4 - - - - WSW 19 28 10 15 - - 0.0
06/04:00pm 32.2 - - - - W 22 33 12 18 - - 0.0
06/03:30pm 32.7 - - - - W 22 37 12 20 - - 0.0
06/03:00pm 33.0 - - - - W 22 32 12 17 - - 0.0
06/02:30pm 33.1 - - - - W 22 33 12 18 - - 0.0
06/02:00pm 33.7 - - - - W 20 28 11 15 - - 0.0
06/01:30pm 34.0 - - - - W 20 32 11 17 - - 0.0
06/01:00pm 33.6 - - - - W 19 28 10 15 - - 0.0
06/12:30pm 34.0 - - - - WSW 17 28 9 15 - - 0.0
06/12:00pm 33.3 - - - - WSW 17 26 9 14 - - 0.0
06/11:30am 33.4 - - - - W 17 28 9 15 - - 0.0
06/11:00am 32.9 - - - - WSW 17 24 9 13 - - 0.0
06/10:30am 32.5 - - - - W 17 28 9 15 - - 0.0
06/10:00am 32.2 - - - - WSW 17 20 9 11 - - 0.0
06/09:30am 31.7 - - - - WSW 15 24 8 13 - - 0.0
06/09:00am 31.3 - - - - SW 13 20 7 11 - - 0.0
06/08:30am 31.3 - - - - SSW 13 20 7 11 - - 0.0
06/08:00am 30.3 - - - - SSW 13 17 7 9 - - 0.0
06/07:30am 30.1 - - - - SW 13 20 7 11 - - 0.0

Other Formats:

Comma delimited format used in spreadsheet applications
http://www.bom.gov.au/fwo/IDW60801/IDW60801.95204.axf

JavaScript Object Notation format (JSON) in row-major order
http://www.bom.gov.au/fwo/IDW60801/IDW60801.95204.json